createdAt,value
2022-11-23T00:00:40.081Z,100766.69
2022-11-23T00:03:10.126Z,100769.78
2022-11-23T00:05:39.898Z,100784.38
2022-11-23T00:08:09.738Z,100787.94
2022-11-23T00:10:39.506Z,100789.09
2022-11-23T00:13:09.438Z,100792.16
2022-11-23T00:15:39.219Z,100800.13
2022-11-23T00:18:09.020Z,100805.66
2022-11-23T00:20:42.581Z,100807.25
2022-11-23T00:23:12.487Z,100823.03
2022-11-23T00:25:42.518Z,100822.22
2022-11-23T00:28:12.312Z,100825.00
2022-11-23T00:30:42.508Z,100824.66
2022-11-23T00:33:12.346Z,100827.41
2022-11-23T00:35:42.155Z,100828.22
2022-11-23T00:38:12.275Z,100830.19
2022-11-23T00:40:42.258Z,100837.63
2022-11-23T00:43:12.541Z,100839.59
2022-11-23T00:45:42.517Z,100845.91
2022-11-23T00:48:12.423Z,100851.44
2022-11-23T00:50:42.407Z,100852.25
2022-11-23T00:53:12.243Z,100855.03
2022-11-23T00:55:42.502Z,100864.94
2022-11-23T00:58:12.620Z,100870.47
2022-11-23T01:00:42.430Z,100872.38
2022-11-23T01:03:12.380Z,100875.16
2022-11-23T01:05:42.405Z,100873.22
2022-11-23T01:08:12.313Z,100881.50
2022-11-23T01:10:42.140Z,100889.78
2022-11-23T01:13:11.912Z,100892.53
2022-11-23T01:15:41.668Z,100897.72
2022-11-23T01:18:11.527Z,100907.66
2022-11-23T01:20:41.563Z,100912.38
2022-11-23T01:23:11.946Z,100916.25
2022-11-23T01:25:44.343Z,100916.75
2022-11-23T01:28:14.465Z,100912.38
2022-11-23T01:30:44.317Z,100910.72
2022-11-23T01:33:14.156Z,100922.56
2022-11-23T01:35:43.999Z,100930.56
2022-11-23T01:38:18.202Z,100938.00
2022-11-23T01:40:48.662Z,100938.00
2022-11-23T01:43:20.680Z,100940.78
2022-11-23T01:46:00.228Z,100939.34
2022-11-23T01:48:35.866Z,100942.91
2022-11-23T01:51:08.861Z,100948.75
2022-11-23T01:53:39.904Z,100950.69
2022-11-23T01:56:12.975Z,100955.91
2022-11-23T01:58:47.450Z,100961.09
2022-11-23T02:01:17.616Z,100964.66
2022-11-23T02:03:49.845Z,100966.63
2022-11-23T02:06:21.994Z,100970.19
2022-11-23T02:08:53.265Z,100971.03
2022-11-23T02:11:23.817Z,100978.47
2022-11-23T02:13:54.163Z,100978.19
2022-11-23T02:16:26.500Z,100972.66
2022-11-23T02:18:57.500Z,100973.44
2022-11-23T02:21:27.605Z,100977.03
2022-11-23T02:24:11.054Z,100971.53
2022-11-23T02:26:41.306Z,100964.88
2022-11-23T02:29:24.213Z,100964.38
2022-11-23T02:31:55.392Z,100967.63
2022-11-23T02:34:27.456Z,100972.03
2022-11-23T02:36:59.679Z,100973.16
2022-11-23T02:39:43.013Z,100972.03
2022-11-23T02:42:13.407Z,100964.88
2022-11-23T02:44:56.311Z,100967.63
2022-11-23T02:47:26.399Z,100961.78
2022-11-23T02:49:56.343Z,100961.78
2022-11-23T02:52:26.540Z,100965.38
2022-11-23T02:54:58.138Z,100965.38
2022-11-23T02:57:28.265Z,100968.94
2022-11-23T02:59:58.369Z,100970.91
2022-11-23T03:02:28.675Z,100968.94
2022-11-23T03:04:58.713Z,100973.00
2022-11-23T03:07:28.622Z,100969.44
2022-11-23T03:09:59.548Z,100962.28
2022-11-23T03:12:29.556Z,100965.53
2022-11-23T03:15:00.892Z,100961.94
2022-11-23T03:17:34.556Z,100956.44
2022-11-23T03:20:07.959Z,100948.97
2022-11-23T03:22:42.034Z,100951.72
2022-11-23T03:25:13.327Z,100955.00
2022-11-23T03:27:43.562Z,100939.22
2022-11-23T03:30:14.022Z,100947.84
2022-11-23T03:32:44.132Z,100940.84
2022-11-23T03:35:13.952Z,100946.06
2022-11-23T03:38:06.309Z,100936.97
2022-11-23T03:40:36.621Z,100927.88
2022-11-23T03:43:16.424Z,100918.75
2022-11-23T03:45:47.073Z,100921.53
2022-11-23T03:48:18.256Z,100908.22
2022-11-23T03:50:48.581Z,100909.34
2022-11-23T03:53:18.514Z,100901.06
2022-11-23T03:55:49.535Z,100898.31
2022-11-23T03:58:19.933Z,100881.41
2022-11-23T04:00:51.986Z,100873.13
2022-11-23T04:03:22.034Z,100873.94
2022-11-23T04:06:15.869Z,100866.47
2022-11-23T04:08:51.838Z,100856.25
2022-11-23T04:11:38.906Z,100846.00
2022-11-23T04:14:11.121Z,100843.22
2022-11-23T04:16:41.241Z,100837.41
2022-11-23T04:19:11.471Z,100837.06
2022-11-23T04:21:41.895Z,100823.25
2022-11-23T04:24:12.695Z,100816.94
2022-11-23T04:26:44.398Z,100811.41
2022-11-23T04:29:14.857Z,100805.88
2022-11-23T04:31:50.101Z,100803.13
2022-11-23T04:34:21.642Z,100800.84
2022-11-23T04:36:54.160Z,100795.31
2022-11-23T04:39:30.634Z,100790.13
2022-11-23T04:42:21.161Z,100781.50
2022-11-23T04:44:56.184Z,100784.25
2022-11-23T04:47:27.552Z,100781.50
2022-11-23T04:50:01.502Z,100780.38
2022-11-23T04:52:31.793Z,100772.56
2022-11-23T04:55:01.831Z,100773.72
2022-11-23T04:57:34.423Z,100762.66
2022-11-23T05:00:06.112Z,100769.81
2022-11-23T05:02:39.229Z,100768.19
2022-11-23T05:05:19.521Z,100763.50
2022-11-23T05:07:52.631Z,100756.00
2022-11-23T05:10:25.928Z,100756.00
2022-11-23T05:12:59.919Z,100754.06
2022-11-23T05:15:34.564Z,100749.34
2022-11-23T05:18:09.729Z,100748.34
2022-11-23T05:20:41.955Z,100748.84
2022-11-23T05:23:13.452Z,100750.47
2022-11-23T05:25:46.318Z,100747.72
2022-11-23T05:31:15.999Z,100740.56
2022-11-23T05:33:49.020Z,100738.63
2022-11-23T05:36:25.654Z,100741.38
2022-11-23T05:38:55.633Z,100739.44
2022-11-23T05:41:32.159Z,100740.25
2022-11-23T05:44:05.905Z,100738.28
2022-11-23T05:46:36.019Z,100737.16
2022-11-23T05:49:06.011Z,100730.00
2022-11-23T05:51:39.280Z,100737.50
2022-11-23T05:54:09.418Z,100730.84
2022-11-23T05:56:46.695Z,100735.53
2022-11-23T05:59:20.148Z,100731.97
2022-11-23T06:01:56.056Z,100728.38
2022-11-23T06:04:32.073Z,100732.78
2022-11-23T06:07:03.217Z,100718.97
2022-11-23T06:09:58.654Z,100718.16
2022-11-23T06:12:32.530Z,100705.97
2022-11-23T06:15:03.627Z,100704.34
2022-11-23T06:17:34.358Z,100698.81
2022-11-23T06:20:09.610Z,100692.97
2022-11-23T06:22:45.732Z,100681.91
2022-11-23T06:25:16.388Z,100689.06
2022-11-23T06:28:03.389Z,100681.59
2022-11-23T06:30:41.482Z,100677.22
2022-11-23T06:33:11.858Z,100665.03
2022-11-23T06:36:03.557Z,100658.34
2022-11-23T06:38:41.492Z,100663.88
2022-11-23T06:41:17.823Z,100663.88
2022-11-23T06:43:50.176Z,100663.41
2022-11-23T06:46:40.388Z,100661.94
2022-11-23T06:49:10.710Z,100662.28
2022-11-23T06:51:42.486Z,100661.94
2022-11-23T06:54:12.616Z,100645.34
2022-11-23T06:56:43.378Z,100643.88
2022-11-23T06:59:13.747Z,100634.81
2022-11-23T07:01:44.529Z,100640.81
2022-11-23T07:04:16.594Z,100623.41
2022-11-23T07:06:51.524Z,100625.38
2022-11-23T07:09:40.285Z,100612.84
2022-11-23T07:12:45.597Z,100615.28
2022-11-23T07:15:18.119Z,100599.53
2022-11-23T07:17:48.834Z,100599.53
2022-11-23T07:20:22.709Z,100591.56
2022-11-23T07:23:05.499Z,100591.25
2022-11-23T07:25:37.910Z,100589.28
2022-11-23T07:28:09.630Z,100586.84
2022-11-23T07:30:40.012Z,100582.94
2022-11-23T07:33:13.500Z,100582.94
2022-11-23T07:35:44.733Z,100581.81
2022-11-23T07:38:15.055Z,100576.78
2022-11-23T07:40:45.638Z,100571.25
2022-11-23T07:43:26.979Z,100560.19
2022-11-23T07:46:00.110Z,100551.91
2022-11-23T07:48:36.025Z,100557.09
2022-11-23T07:51:06.570Z,100552.41
2022-11-23T07:53:38.146Z,100548.00
2022-11-23T07:56:08.625Z,100543.00
2022-11-23T07:58:38.648Z,100534.19
2022-11-23T08:01:08.836Z,100537.75
2022-11-23T08:03:39.029Z,100548.53
2022-11-23T08:06:13.655Z,100536.66
2022-11-23T08:08:44.514Z,100544.59
2022-11-23T08:11:16.935Z,100546.88
2022-11-23T08:13:47.675Z,100557.09
2022-11-23T08:16:17.851Z,100543.00
2022-11-23T08:18:48.013Z,100538.56
2022-11-23T08:21:17.985Z,100536.66
2022-11-23T08:23:47.874Z,100527.53
2022-11-23T08:26:17.717Z,100539.06
2022-11-23T08:28:47.607Z,100534.38
2022-11-23T08:31:17.543Z,100538.28
2022-11-23T08:33:50.067Z,100532.75
2022-11-23T08:36:20.356Z,100534.03
2022-11-23T08:38:53.552Z,100524.94
2022-11-23T08:41:23.873Z,100524.09
2022-11-23T08:43:54.090Z,100528.00
2022-11-23T08:46:24.344Z,100522.84
2022-11-23T08:48:54.411Z,100522.50
2022-11-23T08:51:27.327Z,100529.19
2022-11-23T08:53:57.249Z,100530.28
2022-11-23T08:56:27.355Z,100514.53
2022-11-23T08:58:57.454Z,100520.06
2022-11-23T09:01:27.333Z,100521.69
2022-11-23T09:03:57.613Z,100529.47
2022-11-23T09:06:31.836Z,100533.53
2022-11-23T09:09:02.016Z,100539.06
2022-11-23T09:11:31.986Z,100539.06
2022-11-23T09:14:02.078Z,100531.94
2022-11-23T09:16:35.939Z,100533.53
2022-11-23T09:19:06.064Z,100536.31
2022-11-23T09:21:38.288Z,100539.06
2022-11-23T09:24:08.640Z,100537.94
2022-11-23T09:26:39.864Z,100543.78
2022-11-23T09:29:10.532Z,100537.47
2022-11-23T09:31:41.238Z,100546.03
2022-11-23T09:34:16.688Z,100542.16
2022-11-23T09:36:46.736Z,100539.72
2022-11-23T09:39:16.757Z,100538.91
2022-11-23T09:42:03.940Z,100550.47
2022-11-23T09:44:54.459Z,100547.19
2022-11-23T09:47:33.219Z,100553.53
2022-11-23T09:50:12.279Z,100549.16
2022-11-23T09:52:48.083Z,100559.38
2022-11-23T09:55:28.237Z,100564.28
2022-11-23T09:58:05.196Z,100568.66
2022-11-23T10:00:55.871Z,100569.78
2022-11-23T10:03:26.468Z,100573.03
2022-11-23T10:06:08.227Z,100559.22
2022-11-23T10:08:59.848Z,100566.38
2022-11-23T10:11:29.789Z,100570.28
2022-11-23T10:14:15.199Z,100569.16
2022-11-23T10:17:20.748Z,100566.03
2022-11-23T10:19:59.906Z,100569.63
2022-11-23T10:22:38.503Z,100568.50
2022-11-23T10:25:20.368Z,100569.63
2022-11-23T10:27:53.705Z,100574.00
2022-11-23T10:30:24.029Z,100587.84
2022-11-23T10:32:58.512Z,100584.88
2022-11-23T10:35:33.287Z,100600.03
2022-11-23T10:38:19.131Z,100602.31
2022-11-23T10:41:12.036Z,100603.91
2022-11-23T10:43:50.373Z,100622.78
2022-11-23T10:46:30.254Z,100623.56
2022-11-23T10:49:29.662Z,100636.59
2022-11-23T10:52:11.025Z,100646.50
2022-11-23T10:54:52.680Z,100650.41
2022-11-23T10:57:39.551Z,100651.53
2022-11-23T11:00:18.193Z,100651.53
2022-11-23T11:02:56.774Z,100651.53
2022-11-23T11:06:09.115Z,100657.88
2022-11-23T11:08:53.433Z,100666.97
2022-11-23T11:11:35.158Z,100662.25
2022-11-23T11:14:05.229Z,100658.69
2022-11-23T11:16:38.387Z,100668.91
2022-11-23T11:19:29.327Z,100666.97
2022-11-23T11:22:01.873Z,100667.59
2022-11-23T11:24:38.406Z,100671.50
2022-11-23T11:27:30.899Z,100676.41
2022-11-23T11:30:10.020Z,100683.91
2022-11-23T11:32:58.540Z,100682.53
2022-11-23T11:35:41.158Z,100698.50
2022-11-23T11:38:35.141Z,100687.47
2022-11-23T11:41:13.578Z,100690.22
2022-11-23T11:44:10.280Z,100678.38
2022-11-23T11:46:50.082Z,100686.66
2022-11-23T11:49:45.953Z,100687.47
2022-11-23T11:52:30.391Z,100694.59
2022-11-23T11:55:36.258Z,100702.06
2022-11-23T11:58:14.358Z,100710.38
2022-11-23T12:00:45.443Z,100707.09
2022-11-23T12:03:32.923Z,100726.13
2022-11-23T12:06:27.461Z,100728.91
2022-11-23T12:09:06.044Z,100744.69
2022-11-23T12:11:36.178Z,100745.47
2022-11-23T12:14:08.122Z,100767.06
2022-11-23T12:17:17.058Z,100771.78
2022-11-23T12:19:54.295Z,100782.00
2022-11-23T12:22:33.178Z,100790.28
2022-11-23T12:25:21.819Z,100819.56
2022-11-23T12:28:11.809Z,100818.25
2022-11-23T12:30:42.154Z,100832.88
2022-11-23T12:33:21.171Z,100834.84
2022-11-23T12:35:58.428Z,100839.72
2022-11-23T12:38:34.713Z,100847.50
2022-11-23T12:41:17.800Z,100854.00
2022-11-23T12:44:21.238Z,100861.78
2022-11-23T12:47:05.479Z,100864.34
2022-11-23T12:49:45.682Z,100864.19
2022-11-23T12:52:39.721Z,100860.13
2022-11-23T12:55:39.186Z,100876.22
2022-11-23T12:58:28.657Z,100883.31
2022-11-23T13:01:03.666Z,100887.66
2022-11-23T13:03:51.814Z,100881.50
2022-11-23T13:07:20.361Z,100885.81
2022-11-23T13:12:36.295Z,100900.25
2022-11-23T13:15:22.079Z,100905.50
2022-11-23T13:18:08.405Z,100904.53
2022-11-23T13:21:04.545Z,100899.22
2022-11-23T13:23:42.015Z,100887.06
2022-11-23T13:26:23.266Z,100886.84
2022-11-23T13:29:00.460Z,100882.88
2022-11-23T13:31:33.997Z,100891.94
2022-11-23T13:34:42.463Z,100899.53
2022-11-23T13:37:13.428Z,100904.53
2022-11-23T13:39:49.834Z,100915.72
2022-11-23T13:42:21.462Z,100916.25
2022-11-23T13:45:11.507Z,100927.00
2022-11-23T13:47:43.767Z,100939.47
2022-11-23T13:50:22.066Z,100948.69
2022-11-23T13:52:53.771Z,100952.59
2022-11-23T13:55:36.697Z,100953.41
2022-11-23T13:58:39.847Z,100960.38
2022-11-23T14:01:10.777Z,100961.13
2022-11-23T14:03:53.049Z,100957.38
2022-11-23T14:06:56.856Z,100949.81
2022-11-23T14:09:56.126Z,100950.59
2022-11-23T14:12:29.947Z,100949.66
2022-11-23T14:15:38.745Z,100939.44
2022-11-23T14:18:42.534Z,100933.94
2022-11-23T14:21:41.565Z,100934.22
2022-11-23T14:24:30.219Z,100927.28
2022-11-23T14:27:45.719Z,100919.00
2022-11-23T14:30:26.463Z,100921.06
2022-11-23T14:33:12.705Z,100918.63
2022-11-23T14:35:48.560Z,100915.13
2022-11-23T14:38:37.048Z,100903.94
2022-11-23T14:41:23.153Z,100910.97
2022-11-23T14:43:54.745Z,100910.34
2022-11-23T14:46:27.935Z,100900.94
2022-11-23T14:49:17.925Z,100900.78
2022-11-23T14:51:50.479Z,100902.41
2022-11-23T14:54:21.569Z,100891.25
2022-11-23T14:56:54.545Z,100884.09
2022-11-23T14:59:32.391Z,100886.72
2022-11-23T15:02:25.090Z,100888.38
2022-11-23T15:05:15.268Z,100883.66
2022-11-23T15:08:01.241Z,100889.34
2022-11-23T15:10:46.432Z,100884.16
2022-11-23T15:13:28.603Z,100892.09
2022-11-23T15:16:00.398Z,100887.72
2022-11-23T15:18:30.898Z,100885.44
2022-11-23T15:21:15.818Z,100883.34
2022-11-23T15:23:59.473Z,100885.72
2022-11-23T15:26:48.121Z,100891.34
2022-11-23T15:29:37.291Z,100888.09
2022-11-23T15:32:31.176Z,100888.78
2022-11-23T15:35:09.932Z,100883.72
2022-11-23T15:37:50.525Z,100889.56
2022-11-23T15:40:22.145Z,100888.44
2022-11-23T15:42:54.046Z,100887.16
2022-11-23T15:45:40.538Z,100886.94
2022-11-23T15:48:16.432Z,100882.59
2022-11-23T15:51:04.348Z,100874.56
2022-11-23T15:53:51.927Z,100869.50
2022-11-23T15:56:37.117Z,100862.91
2022-11-23T15:59:35.428Z,100856.91
2022-11-23T16:02:09.387Z,100850.06
2022-11-23T16:04:42.916Z,100857.03
2022-11-23T16:07:21.572Z,100847.94
2022-11-23T16:09:55.218Z,100848.78
2022-11-23T16:12:37.765Z,100846.81
2022-11-23T16:15:43.755Z,100850.69
2022-11-23T16:18:19.500Z,100841.28
2022-11-23T16:21:03.199Z,100839.66
2022-11-23T16:23:53.447Z,100834.13
2022-11-23T16:26:32.772Z,100834.63
2022-11-23T16:29:04.768Z,100835.75
2022-11-23T16:31:53.966Z,100830.25
2022-11-23T16:34:24.903Z,100827.50
2022-11-23T16:36:55.753Z,100824.44
2022-11-23T16:39:27.111Z,100818.41
2022-11-23T16:41:57.838Z,100825.56
2022-11-23T16:44:28.473Z,100834.47
2022-11-23T16:47:25.883Z,100821.97
2022-11-23T16:49:57.128Z,100831.72
2022-11-23T16:52:27.152Z,100834.13
2022-11-23T16:54:57.388Z,100834.47
2022-11-23T16:57:33.685Z,100832.03
2022-11-23T17:00:10.118Z,100839.34
2022-11-23T17:02:40.537Z,100840.31
2022-11-23T17:05:29.016Z,100840.94
2022-11-23T17:07:59.573Z,100855.53
2022-11-23T17:10:29.843Z,100853.63
2022-11-23T17:13:00.387Z,100858.00
2022-11-23T17:15:30.634Z,100844.50
2022-11-23T17:18:00.914Z,100843.38
2022-11-23T17:20:31.230Z,100841.75
2022-11-23T17:23:03.451Z,100840.63
2022-11-23T17:25:35.289Z,100839.00
2022-11-23T17:28:07.595Z,100837.84
2022-11-23T17:30:37.894Z,100835.44
2022-11-23T17:33:08.197Z,100841.75
2022-11-23T17:35:39.277Z,100832.34
2022-11-23T17:38:15.228Z,100827.16
2022-11-23T17:40:45.765Z,100832.03
2022-11-23T17:43:19.379Z,100821.13
2022-11-23T17:45:52.111Z,100816.91
2022-11-23T17:48:22.697Z,100817.53
2022-11-23T17:50:53.765Z,100820.78
2022-11-23T17:53:25.478Z,100817.75
2022-11-23T17:55:57.599Z,100821.63
2022-11-23T17:58:27.848Z,100825.69
2022-11-23T18:00:58.221Z,100818.88
2022-11-23T18:03:29.000Z,100816.59
2022-11-23T18:05:59.592Z,100819.66
2022-11-23T18:08:29.726Z,100816.41
2022-11-23T18:11:00.371Z,100810.09
2022-11-23T18:13:30.708Z,100807.00
2022-11-23T18:16:00.969Z,100799.84
2022-11-23T18:18:31.178Z,100794.16
2022-11-23T18:21:02.784Z,100798.22
2022-11-23T18:23:32.971Z,100787.50
2022-11-23T18:26:21.595Z,100792.22
2022-11-23T18:28:52.760Z,100785.59
2022-11-23T18:31:23.174Z,100788.81
2022-11-23T18:33:53.556Z,100791.56
2022-11-23T18:36:24.211Z,100785.09
2022-11-23T18:38:54.326Z,100785.25
2022-11-23T18:41:24.603Z,100784.25
2022-11-23T18:43:54.647Z,100791.91
2022-11-23T18:46:24.793Z,100790.28
2022-11-23T18:49:13.203Z,100797.44
2022-11-23T18:51:43.437Z,100791.91
2022-11-23T18:54:13.739Z,100794.50
2022-11-23T18:56:43.964Z,100795.00
2022-11-23T18:59:35.055Z,100793.38
2022-11-23T19:02:04.407Z,100788.66
2022-11-23T19:04:36.423Z,100795.00
2022-11-23T19:07:07.069Z,100785.88
2022-11-23T19:09:37.725Z,100785.09
2022-11-23T19:12:08.984Z,100776.81
2022-11-23T19:14:39.177Z,100781.81
2022-11-23T19:17:09.442Z,100771.59
2022-11-23T19:19:40.435Z,100773.22
2022-11-23T19:22:11.187Z,100773.22
2022-11-23T19:24:42.407Z,100764.94
2022-11-23T19:27:12.193Z,100763.31
2022-11-23T19:29:42.232Z,100757.00
2022-11-23T19:32:12.477Z,100757.78
2022-11-23T19:34:42.649Z,100751.31
2022-11-23T19:37:12.916Z,100754.53
2022-11-23T19:39:45.132Z,100742.53
2022-11-23T19:42:15.975Z,100734.75
2022-11-23T19:44:46.267Z,100725.66
2022-11-23T19:47:21.392Z,100728.06
2022-11-23T19:49:53.192Z,100729.69
2022-11-23T19:52:29.677Z,100727.28
2022-11-23T19:55:12.254Z,100722.09
2022-11-23T19:57:42.470Z,100708.75
2022-11-23T20:00:13.211Z,100706.66
2022-11-23T20:02:43.428Z,100712.00
2022-11-23T20:05:15.101Z,100712.97
2022-11-23T20:07:45.740Z,100716.25
2022-11-23T20:10:16.523Z,100710.22
2022-11-23T20:12:46.862Z,100712.97
2022-11-23T20:15:16.892Z,100716.88
2022-11-23T20:17:49.271Z,100721.59
2022-11-23T20:20:19.653Z,100721.25
2022-11-23T20:22:50.065Z,100715.56
2022-11-23T20:25:22.196Z,100721.09
2022-11-23T20:27:52.444Z,100716.72
2022-11-23T20:30:22.507Z,100712.47
2022-11-23T20:32:52.563Z,100704.53
2022-11-23T20:35:22.646Z,100699.19
2022-11-23T20:37:53.180Z,100700.66
2022-11-23T20:40:23.724Z,100694.31
2022-11-23T20:42:53.983Z,100695.44
2022-11-23T20:45:24.220Z,100698.19
2022-11-23T20:47:57.606Z,100690.75
2022-11-23T20:50:30.001Z,100694.63
2022-11-23T20:53:05.087Z,100698.19
2022-11-23T20:55:35.526Z,100708.09
2022-11-23T20:58:05.863Z,100697.72
2022-11-23T21:00:36.039Z,100701.28
2022-11-23T21:03:06.469Z,100709.91
2022-11-23T21:05:38.732Z,100721.72
2022-11-23T21:08:09.096Z,100737.47
2022-11-23T21:10:57.689Z,100738.28
2022-11-23T21:13:49.794Z,100745.44
2022-11-23T21:16:20.296Z,100754.03
2022-11-23T21:18:50.694Z,100748.81
2022-11-23T21:21:21.161Z,100753.19
2022-11-23T21:23:52.479Z,100747.69
2022-11-23T21:26:22.849Z,100740.88
2022-11-23T21:28:53.314Z,100736.66
2022-11-23T21:31:24.224Z,100739.91
2022-11-23T21:33:55.520Z,100733.41
2022-11-23T21:36:25.557Z,100736.66
2022-11-23T21:38:55.682Z,100740.53
2022-11-23T21:41:25.799Z,100737.28
2022-11-23T21:43:58.974Z,100724.63
2022-11-23T21:46:29.582Z,100735.34
2022-11-23T21:49:01.873Z,100751.91
2022-11-23T21:51:33.486Z,100752.53
2022-11-23T21:54:06.846Z,100748.81
2022-11-23T21:56:36.988Z,100743.13
2022-11-23T21:59:07.212Z,100745.88
2022-11-23T22:01:39.310Z,100742.81
2022-11-23T22:04:12.202Z,100753.84
2022-11-23T22:06:44.309Z,100757.09
2022-11-23T22:09:15.359Z,100751.41
2022-11-23T22:11:46.569Z,100755.28
2022-11-23T22:14:18.453Z,100742.97
2022-11-23T22:16:58.836Z,100757.72
2022-11-23T22:19:29.566Z,100758.38
2022-11-23T22:21:59.449Z,100756.09
2022-11-23T22:24:29.375Z,100751.06
2022-11-23T22:27:02.302Z,100749.94
2022-11-23T22:29:32.437Z,100749.16
2022-11-23T22:32:02.585Z,100742.50
2022-11-23T22:34:37.138Z,100749.94
2022-11-23T22:37:10.536Z,100746.38
2022-11-23T22:39:41.078Z,100750.78
2022-11-23T22:42:11.181Z,100753.34
2022-11-23T22:44:41.608Z,100752.22
2022-11-23T22:47:11.566Z,100759.69
2022-11-23T22:49:41.517Z,100758.84
2022-11-23T22:52:12.014Z,100758.84
2022-11-23T22:54:42.385Z,100767.13
2022-11-23T22:58:07.416Z,100771.03
2022-11-23T23:00:37.884Z,100769.03
2022-11-23T23:03:08.094Z,100776.81
2022-11-23T23:05:38.389Z,100789.59
2022-11-23T23:08:08.748Z,100791.66
2022-11-23T23:10:38.652Z,100792.38
2022-11-23T23:13:08.483Z,100801.78
2022-11-23T23:15:38.460Z,100802.09
2022-11-23T23:18:09.358Z,100821.09
2022-11-23T23:20:39.981Z,100829.97
2022-11-23T23:23:10.212Z,100835.78
2022-11-23T23:25:40.363Z,100828.63
2022-11-23T23:28:10.264Z,100841.63
2022-11-23T23:30:41.257Z,100839.19
2022-11-23T23:33:11.266Z,100847.94
2022-11-23T23:35:41.784Z,100849.41
2022-11-23T23:38:11.795Z,100853.78
2022-11-23T23:40:42.953Z,100847.47
2022-11-23T23:43:12.634Z,100861.72
2022-11-23T23:45:42.472Z,100867.75
2022-11-23T23:48:12.820Z,100869.19
2022-11-23T23:50:42.791Z,100869.19
2022-11-23T23:53:12.686Z,100870.34
2022-11-23T23:55:42.657Z,100865.94
2022-11-23T23:58:12.476Z,100865.94
